sensor_id;sensor_type;location;lat;lon;timestamp;temperature;humidity
73780;SHT30;62093;37.614;15.072;2023-03-23T00:01:10;16.18;62.87
73780;SHT30;62093;37.614;15.072;2023-03-23T00:03:39;16.18;62.83
73780;SHT30;62093;37.614;15.072;2023-03-23T00:06:05;16.19;62.77
73780;SHT30;62093;37.614;15.072;2023-03-23T00:08:33;16.21;62.77
73780;SHT30;62093;37.614;15.072;2023-03-23T00:11:05;16.19;62.93
73780;SHT30;62093;37.614;15.072;2023-03-23T00:13:31;16.18;62.90
73780;SHT30;62093;37.614;15.072;2023-03-23T00:15:58;16.13;62.67
73780;SHT30;62093;37.614;15.072;2023-03-23T00:18:24;16.16;62.66
73780;SHT30;62093;37.614;15.072;2023-03-23T00:20:53;16.16;62.81
73780;SHT30;62093;37.614;15.072;2023-03-23T00:23:21;16.18;62.91
73780;SHT30;62093;37.614;15.072;2023-03-23T00:25:53;16.16;62.71
73780;SHT30;62093;37.614;15.072;2023-03-23T00:28:23;16.13;62.92
73780;SHT30;62093;37.614;15.072;2023-03-23T00:30:59;16.15;62.77
73780;SHT30;62093;37.614;15.072;2023-03-23T00:33:29;16.15;62.69
73780;SHT30;62093;37.614;15.072;2023-03-23T00:35:55;16.13;62.97
73780;SHT30;62093;37.614;15.072;2023-03-23T00:38:23;16.12;62.81
73780;SHT30;62093;37.614;15.072;2023-03-23T00:40:49;16.11;62.65
73780;SHT30;62093;37.614;15.072;2023-03-23T00:43:16;16.13;62.66
73780;SHT30;62093;37.614;15.072;2023-03-23T00:45:43;16.11;62.79
73780;SHT30;62093;37.614;15.072;2023-03-23T00:48:22;16.13;62.74
73780;SHT30;62093;37.614;15.072;2023-03-23T00:50:49;16.13;62.68
73780;SHT30;62093;37.614;15.072;2023-03-23T00:53:17;16.09;62.72
73780;SHT30;62093;37.614;15.072;2023-03-23T00:55:45;16.11;62.62
73780;SHT30;62093;37.614;15.072;2023-03-23T00:58:12;16.09;62.58
73780;SHT30;62093;37.614;15.072;2023-03-23T01:00:39;16.09;62.51
73780;SHT30;62093;37.614;15.072;2023-03-23T01:03:05;16.11;62.66
73780;SHT30;62093;37.614;15.072;2023-03-23T01:05:36;16.06;62.28
73780;SHT30;62093;37.614;15.072;2023-03-23T01:08:03;16.06;62.26
73780;SHT30;62093;37.614;15.072;2023-03-23T01:10:30;16.04;62.46
73780;SHT30;62093;37.614;15.072;2023-03-23T01:12:59;16.06;62.45
73780;SHT30;62093;37.614;15.072;2023-03-23T01:15:29;16.08;62.43
73780;SHT30;62093;37.614;15.072;2023-03-23T01:17:56;16.08;62.42
73780;SHT30;62093;37.614;15.072;2023-03-23T01:20:23;16.08;62.52
73780;SHT30;62093;37.614;15.072;2023-03-23T01:22:49;16.02;62.50
73780;SHT30;62093;37.614;15.072;2023-03-23T01:25:15;16.08;62.58
73780;SHT30;62093;37.614;15.072;2023-03-23T01:27:41;16.09;62.48
73780;SHT30;62093;37.614;15.072;2023-03-23T01:30:10;16.04;62.51
73780;SHT30;62093;37.614;15.072;2023-03-23T01:32:38;16.08;62.60
73780;SHT30;62093;37.614;15.072;2023-03-23T01:35:04;16.08;62.77
73780;SHT30;62093;37.614;15.072;2023-03-23T01:37:30;16.08;62.65
73780;SHT30;62093;37.614;15.072;2023-03-23T01:39:57;16.04;62.41
73780;SHT30;62093;37.614;15.072;2023-03-23T01:42:24;16.06;62.70
73780;SHT30;62093;37.614;15.072;2023-03-23T01:47:20;16.05;62.64
73780;SHT30;62093;37.614;15.072;2023-03-23T01:49:50;16.08;62.51
73780;SHT30;62093;37.614;15.072;2023-03-23T01:52:23;16.04;62.65
73780;SHT30;62093;37.614;15.072;2023-03-23T01:54:57;16.08;62.49
73780;SHT30;62093;37.614;15.072;2023-03-23T01:57:25;16.04;62.50
73780;SHT30;62093;37.614;15.072;2023-03-23T01:59:59;16.05;62.49
73780;SHT30;62093;37.614;15.072;2023-03-23T02:02:49;16.02;62.33
73780;SHT30;62093;37.614;15.072;2023-03-23T02:05:38;16.02;62.43
73780;SHT30;62093;37.614;15.072;2023-03-23T02:08:20;16.02;62.52
73780;SHT30;62093;37.614;15.072;2023-03-23T02:10:46;16.02;62.59
73780;SHT30;62093;37.614;15.072;2023-03-23T02:13:13;16.01;62.42
73780;SHT30;62093;37.614;15.072;2023-03-23T02:16:03;16.02;62.51
73780;SHT30;62093;37.614;15.072;2023-03-23T02:26:55;16.02;62.43
73780;SHT30;62093;37.614;15.072;2023-03-23T02:29:26;16.04;62.56
73780;SHT30;62093;37.614;15.072;2023-03-23T02:34:27;16.04;62.48
73780;SHT30;62093;37.614;15.072;2023-03-23T02:39:23;16.01;62.44
73780;SHT30;62093;37.614;15.072;2023-03-23T02:42:02;16.01;62.42
73780;SHT30;62093;37.614;15.072;2023-03-23T02:44:32;16.02;62.36
73780;SHT30;62093;37.614;15.072;2023-03-23T02:47:00;16.02;62.33
73780;SHT30;62093;37.614;15.072;2023-03-23T02:49:31;16.01;62.52
73780;SHT30;62093;37.614;15.072;2023-03-23T02:51:59;15.98;62.45
73780;SHT30;62093;37.614;15.072;2023-03-23T02:54:26;16.01;62.54
73780;SHT30;62093;37.614;15.072;2023-03-23T02:56:54;16.00;62.30
73780;SHT30;62093;37.614;15.072;2023-03-23T02:59:26;16.00;62.45
73780;SHT30;62093;37.614;15.072;2023-03-23T03:01:57;16.00;62.37
73780;SHT30;62093;37.614;15.072;2023-03-23T03:04:26;15.97;62.52
73780;SHT30;62093;37.614;15.072;2023-03-23T03:12:36;15.97;62.33
73780;SHT30;62093;37.614;15.072;2023-03-23T03:15:26;15.98;62.45
73780;SHT30;62093;37.614;15.072;2023-03-23T03:18:30;16.00;62.38
73780;SHT30;62093;37.614;15.072;2023-03-23T03:21:04;16.00;62.57
73780;SHT30;62093;37.614;15.072;2023-03-23T03:23:34;16.00;62.15
73780;SHT30;62093;37.614;15.072;2023-03-23T03:26:03;15.95;62.26
73780;SHT30;62093;37.614;15.072;2023-03-23T03:28:47;15.94;62.34
73780;SHT30;62093;37.614;15.072;2023-03-23T03:31:17;15.98;62.58
73780;SHT30;62093;37.614;15.072;2023-03-23T03:33:44;15.98;62.24
73780;SHT30;62093;37.614;15.072;2023-03-23T03:36:20;15.95;62.43
73780;SHT30;62093;37.614;15.072;2023-03-23T03:38:49;15.97;62.28
73780;SHT30;62093;37.614;15.072;2023-03-23T03:41:17;15.97;62.25
73780;SHT30;62093;37.614;15.072;2023-03-23T03:43:45;15.95;62.49
73780;SHT30;62093;37.614;15.072;2023-03-23T03:46:11;15.95;62.50
73780;SHT30;62093;37.614;15.072;2023-03-23T03:48:38;15.94;62.45
73780;SHT30;62093;37.614;15.072;2023-03-23T03:51:04;15.94;62.51
73780;SHT30;62093;37.614;15.072;2023-03-23T03:53:33;15.97;62.41
73780;SHT30;62093;37.614;15.072;2023-03-23T03:55:59;15.94;62.50
73780;SHT30;62093;37.614;15.072;2023-03-23T03:58:35;15.92;62.48
73780;SHT30;62093;37.614;15.072;2023-03-23T04:01:27;15.94;62.35
73780;SHT30;62093;37.614;15.072;2023-03-23T04:03:54;15.92;62.32
73780;SHT30;62093;37.614;15.072;2023-03-23T04:06:31;15.92;62.26
73780;SHT30;62093;37.614;15.072;2023-03-23T04:08:59;15.91;62.44
73780;SHT30;62093;37.614;15.072;2023-03-23T04:11:32;15.91;62.39
73780;SHT30;62093;37.614;15.072;2023-03-23T04:14:17;15.91;62.40
73780;SHT30;62093;37.614;15.072;2023-03-23T04:16:44;15.91;62.48
73780;SHT30;62093;37.614;15.072;2023-03-23T04:19:10;15.90;62.24
73780;SHT30;62093;37.614;15.072;2023-03-23T04:21:38;15.90;62.40
73780;SHT30;62093;37.614;15.072;2023-03-23T04:24:04;15.92;62.34
73780;SHT30;62093;37.614;15.072;2023-03-23T04:26:31;15.90;62.35
73780;SHT30;62093;37.614;15.072;2023-03-23T04:29:05;15.90;62.34
73780;SHT30;62093;37.614;15.072;2023-03-23T04:31:35;15.88;62.21
73780;SHT30;62093;37.614;15.072;2023-03-23T04:34:23;15.88;62.37
73780;SHT30;62093;37.614;15.072;2023-03-23T04:36:51;15.90;62.44
73780;SHT30;62093;37.614;15.072;2023-03-23T04:39:22;15.85;62.33
73780;SHT30;62093;37.614;15.072;2023-03-23T04:41:51;15.87;62.50
73780;SHT30;62093;37.614;15.072;2023-03-23T04:44:35;15.87;62.44
73780;SHT30;62093;37.614;15.072;2023-03-23T04:47:12;15.85;62.26
73780;SHT30;62093;37.614;15.072;2023-03-23T04:49:45;15.84;62.48
73780;SHT30;62093;37.614;15.072;2023-03-23T04:52:25;15.82;62.30
73780;SHT30;62093;37.614;15.072;2023-03-23T04:54:56;15.85;62.39
73780;SHT30;62093;37.614;15.072;2023-03-23T04:57:23;15.85;62.36
73780;SHT30;62093;37.614;15.072;2023-03-23T05:00:11;15.84;62.41
73780;SHT30;62093;37.614;15.072;2023-03-23T05:02:43;15.84;62.46
73780;SHT30;62093;37.614;15.072;2023-03-23T05:05:13;15.85;62.30
73780;SHT30;62093;37.614;15.072;2023-03-23T05:07:41;15.84;62.40
73780;SHT30;62093;37.614;15.072;2023-03-23T05:10:10;15.81;62.43
73780;SHT30;62093;37.614;15.072;2023-03-23T05:12:37;15.84;62.59
73780;SHT30;62093;37.614;15.072;2023-03-23T05:15:08;15.84;62.43
73780;SHT30;62093;37.614;15.072;2023-03-23T05:17:35;15.87;62.38
73780;SHT30;62093;37.614;15.072;2023-03-23T05:20:11;15.85;62.53
73780;SHT30;62093;37.614;15.072;2023-03-23T05:22:44;15.87;62.27
73780;SHT30;62093;37.614;15.072;2023-03-23T05:25:13;15.85;62.23
73780;SHT30;62093;37.614;15.072;2023-03-23T05:27:43;15.84;62.13
73780;SHT30;62093;37.614;15.072;2023-03-23T05:30:21;15.82;61.95
73780;SHT30;62093;37.614;15.072;2023-03-23T05:32:49;15.82;62.01
73780;SHT30;62093;37.614;15.072;2023-03-23T05:35:31;15.82;62.06
73780;SHT30;62093;37.614;15.072;2023-03-23T05:37:57;15.82;62.43
73780;SHT30;62093;37.614;15.072;2023-03-23T05:40:23;15.85;62.42
73780;SHT30;62093;37.614;15.072;2023-03-23T05:43:08;15.85;62.51
73780;SHT30;62093;37.614;15.072;2023-03-23T05:45:43;15.85;62.49
73780;SHT30;62093;37.614;15.072;2023-03-23T05:48:09;15.87;62.45
73780;SHT30;62093;37.614;15.072;2023-03-23T05:50:35;15.87;62.55
73780;SHT30;62093;37.614;15.072;2023-03-23T05:53:02;15.87;62.43
73780;SHT30;62093;37.614;15.072;2023-03-23T05:55:31;15.84;62.40
73780;SHT30;62093;37.614;15.072;2023-03-23T05:58:18;15.88;61.37
73780;SHT30;62093;37.614;15.072;2023-03-23T06:00:45;15.90;61.31
73780;SHT30;62093;37.614;15.072;2023-03-23T06:03:19;15.98;61.09
73780;SHT30;62093;37.614;15.072;2023-03-23T06:05:56;15.97;62.24
73780;SHT30;62093;37.614;15.072;2023-03-23T06:08:30;15.95;61.47
73780;SHT30;62093;37.614;15.072;2023-03-23T06:10:56;15.95;61.48
73780;SHT30;62093;37.614;15.072;2023-03-23T06:13:23;15.94;62.02
73780;SHT30;62093;37.614;15.072;2023-03-23T06:15:55;15.98;62.15
73780;SHT30;62093;37.614;15.072;2023-03-23T06:18:41;15.97;62.02
73780;SHT30;62093;37.614;15.072;2023-03-23T06:21:41;15.94;62.26
73780;SHT30;62093;37.614;15.072;2023-03-23T06:24:16;15.95;62.59
73780;SHT30;62093;37.614;15.072;2023-03-23T06:26:42;15.95;62.57
73780;SHT30;62093;37.614;15.072;2023-03-23T06:29:14;15.95;62.41
73780;SHT30;62093;37.614;15.072;2023-03-23T06:31:47;15.94;62.47
73780;SHT30;62093;37.614;15.072;2023-03-23T06:34:14;15.98;62.32
73780;SHT30;62093;37.614;15.072;2023-03-23T06:36:58;15.95;62.52
73780;SHT30;62093;37.614;15.072;2023-03-23T06:39:32;15.98;62.43
73780;SHT30;62093;37.614;15.072;2023-03-23T06:42:12;15.98;62.37
73780;SHT30;62093;37.614;15.072;2023-03-23T06:44:43;16.00;62.42
73780;SHT30;62093;37.614;15.072;2023-03-23T06:47:11;16.00;62.37
73780;SHT30;62093;37.614;15.072;2023-03-23T06:49:44;15.98;62.29
73780;SHT30;62093;37.614;15.072;2023-03-23T06:52:18;15.98;62.25
73780;SHT30;62093;37.614;15.072;2023-03-23T06:54:44;16.02;62.38
73780;SHT30;62093;37.614;15.072;2023-03-23T06:57:11;16.02;62.28
73780;SHT30;62093;37.614;15.072;2023-03-23T06:59:37;16.01;62.19
73780;SHT30;62093;37.614;15.072;2023-03-23T07:02:04;16.01;62.14
73780;SHT30;62093;37.614;15.072;2023-03-23T07:04:32;16.04;62.39
73780;SHT30;62093;37.614;15.072;2023-03-23T07:07:09;16.02;62.15
73780;SHT30;62093;37.614;15.072;2023-03-23T07:09:45;16.04;62.16
73780;SHT30;62093;37.614;15.072;2023-03-23T07:12:14;16.02;62.19
73780;SHT30;62093;37.614;15.072;2023-03-23T07:14:45;16.04;62.33
73780;SHT30;62093;37.614;15.072;2023-03-23T07:17:11;16.04;62.02
73780;SHT30;62093;37.614;15.072;2023-03-23T07:19:43;16.06;62.28
73780;SHT30;62093;37.614;15.072;2023-03-23T07:22:13;16.06;62.36
73780;SHT30;62093;37.614;15.072;2023-03-23T07:24:41;16.05;62.18
73780;SHT30;62093;37.614;15.072;2023-03-23T07:27:23;16.06;62.24
73780;SHT30;62093;37.614;15.072;2023-03-23T07:29:52;16.06;62.07
73780;SHT30;62093;37.614;15.072;2023-03-23T07:32:23;16.08;62.10
73780;SHT30;62093;37.614;15.072;2023-03-23T07:34:49;16.08;62.23
73780;SHT30;62093;37.614;15.072;2023-03-23T07:37:32;16.09;62.06
73780;SHT30;62093;37.614;15.072;2023-03-23T07:39:58;16.13;62.04
73780;SHT30;62093;37.614;15.072;2023-03-23T07:42:24;16.12;62.23
73780;SHT30;62093;37.614;15.072;2023-03-23T07:44:59;16.09;62.01
73780;SHT30;62093;37.614;15.072;2023-03-23T07:47:25;16.12;62.11
73780;SHT30;62093;37.614;15.072;2023-03-23T07:49:51;16.11;62.15
73780;SHT30;62093;37.614;15.072;2023-03-23T07:52:24;16.15;62.19
73780;SHT30;62093;37.614;15.072;2023-03-23T07:54:51;16.15;62.09
73780;SHT30;62093;37.614;15.072;2023-03-23T07:57:34;16.13;61.97
73780;SHT30;62093;37.614;15.072;2023-03-23T08:00:02;16.15;61.99
73780;SHT30;62093;37.614;15.072;2023-03-23T08:02:48;16.16;61.86
73780;SHT30;62093;37.614;15.072;2023-03-23T08:05:32;16.16;61.89
73780;SHT30;62093;37.614;15.072;2023-03-23T08:08:18;16.15;61.83
73780;SHT30;62093;37.614;15.072;2023-03-23T08:11:20;16.18;61.87
73780;SHT30;62093;37.614;15.072;2023-03-23T08:14:01;16.19;61.85
73780;SHT30;62093;37.614;15.072;2023-03-23T08:16:38;16.19;62.00
73780;SHT30;62093;37.614;15.072;2023-03-23T08:19:20;16.19;61.94
73780;SHT30;62093;37.614;15.072;2023-03-23T08:21:49;16.19;61.84
73780;SHT30;62093;37.614;15.072;2023-03-23T08:24:41;16.23;61.75
73780;SHT30;62093;37.614;15.072;2023-03-23T08:27:36;16.23;61.46
73780;SHT30;62093;37.614;15.072;2023-03-23T08:30:31;16.21;61.26
73780;SHT30;62093;37.614;15.072;2023-03-23T08:33:24;16.25;61.52
73780;SHT30;62093;37.614;15.072;2023-03-23T08:36:10;16.23;61.28
73780;SHT30;62093;37.614;15.072;2023-03-23T08:38:42;16.23;60.64
73780;SHT30;62093;37.614;15.072;2023-03-23T08:41:09;16.26;61.21
73780;SHT30;62093;37.614;15.072;2023-03-23T08:43:49;16.28;61.18
73780;SHT30;62093;37.614;15.072;2023-03-23T08:46:35;16.29;61.32
73780;SHT30;62093;37.614;15.072;2023-03-23T08:49:12;16.32;61.20
73780;SHT30;62093;37.614;15.072;2023-03-23T08:51:59;16.30;60.80
73780;SHT30;62093;37.614;15.072;2023-03-23T08:54:49;16.33;61.36
73780;SHT30;62093;37.614;15.072;2023-03-23T08:57:27;16.32;61.32
73780;SHT30;62093;37.614;15.072;2023-03-23T09:00:11;16.35;61.46
73780;SHT30;62093;37.614;15.072;2023-03-23T09:03:15;16.36;61.54
73780;SHT30;62093;37.614;15.072;2023-03-23T09:06:14;16.36;61.56
73780;SHT30;62093;37.614;15.072;2023-03-23T09:08:44;16.41;61.45
73780;SHT30;62093;37.614;15.072;2023-03-23T09:11:10;16.41;61.18
73780;SHT30;62093;37.614;15.072;2023-03-23T09:13:38;16.38;61.26
73780;SHT30;62093;37.614;15.072;2023-03-23T09:16:05;16.39;61.37
73780;SHT30;62093;37.614;15.072;2023-03-23T09:18:32;16.42;61.35
73780;SHT30;62093;37.614;15.072;2023-03-23T09:20:59;16.43;61.16
73780;SHT30;62093;37.614;15.072;2023-03-23T09:23:26;16.45;61.21
73780;SHT30;62093;37.614;15.072;2023-03-23T09:25:52;16.48;61.20
73780;SHT30;62093;37.614;15.072;2023-03-23T09:28:19;16.46;61.19
73780;SHT30;62093;37.614;15.072;2023-03-23T09:30:45;16.49;61.22
73780;SHT30;62093;37.614;15.072;2023-03-23T09:33:13;16.49;61.23
73780;SHT30;62093;37.614;15.072;2023-03-23T09:35:40;16.51;60.90
73780;SHT30;62093;37.614;15.072;2023-03-23T09:38:08;16.52;61.11
73780;SHT30;62093;37.614;15.072;2023-03-23T09:40:58;16.52;61.11
73780;SHT30;62093;37.614;15.072;2023-03-23T09:49:37;16.56;61.17
73780;SHT30;62093;37.614;15.072;2023-03-23T09:52:16;16.57;60.96
73780;SHT30;62093;37.614;15.072;2023-03-23T09:54:48;16.59;60.88
73780;SHT30;62093;37.614;15.072;2023-03-23T10:00:30;16.60;61.10
73780;SHT30;62093;37.614;15.072;2023-03-23T10:03:06;16.59;61.10
73780;SHT30;62093;37.614;15.072;2023-03-23T10:05:40;16.60;60.91
73780;SHT30;62093;37.614;15.072;2023-03-23T10:08:13;16.59;60.95
73780;SHT30;62093;37.614;15.072;2023-03-23T10:11:03;16.63;61.10
73780;SHT30;62093;37.614;15.072;2023-03-23T10:16:23;16.64;60.96
73780;SHT30;62093;37.614;15.072;2023-03-23T10:22:00;16.64;61.05
73780;SHT30;62093;37.614;15.072;2023-03-23T10:24:43;16.66;61.04
73780;SHT30;62093;37.614;15.072;2023-03-23T10:27:24;16.66;60.93
73780;SHT30;62093;37.614;15.072;2023-03-23T10:29:57;16.63;60.97
73780;SHT30;62093;37.614;15.072;2023-03-23T10:32:39;16.66;60.99
73780;SHT30;62093;37.614;15.072;2023-03-23T10:35:14;16.69;61.03
73780;SHT30;62093;37.614;15.072;2023-03-23T10:37:47;16.69;60.97
73780;SHT30;62093;37.614;15.072;2023-03-23T10:40:22;16.67;60.95
73780;SHT30;62093;37.614;15.072;2023-03-23T10:42:50;16.66;60.98
73780;SHT30;62093;37.614;15.072;2023-03-23T10:45:17;16.67;61.03
73780;SHT30;62093;37.614;15.072;2023-03-23T10:47:59;16.69;61.00
73780;SHT30;62093;37.614;15.072;2023-03-23T10:50:31;16.69;60.98
73780;SHT30;62093;37.614;15.072;2023-03-23T10:53:00;16.69;60.99
73780;SHT30;62093;37.614;15.072;2023-03-23T10:55:37;16.70;61.00
73780;SHT30;62093;37.614;15.072;2023-03-23T10:58:07;16.70;60.97
73780;SHT30;62093;37.614;15.072;2023-03-23T11:00:33;16.73;60.98
73780;SHT30;62093;37.614;15.072;2023-03-23T11:03:22;16.70;60.94
73780;SHT30;62093;37.614;15.072;2023-03-23T11:05:52;16.72;60.93
73780;SHT30;62093;37.614;15.072;2023-03-23T11:08:24;16.73;60.96
73780;SHT30;62093;37.614;15.072;2023-03-23T11:11:37;16.72;60.89
73780;SHT30;62093;37.614;15.072;2023-03-23T11:13:45;16.74;60.90
73780;SHT30;62093;37.614;15.072;2023-03-23T11:16:26;16.73;60.94
73780;SHT30;62093;37.614;15.072;2023-03-23T11:18:52;16.73;60.87
73780;SHT30;62093;37.614;15.072;2023-03-23T11:21:20;16.74;60.86
73780;SHT30;62093;37.614;15.072;2023-03-23T11:23:50;16.74;60.89
73780;SHT30;62093;37.614;15.072;2023-03-23T11:26:24;16.77;60.90
73780;SHT30;62093;37.614;15.072;2023-03-23T11:31:43;16.76;60.84
73780;SHT30;62093;37.614;15.072;2023-03-23T11:34:10;16.74;60.81
73780;SHT30;62093;37.614;15.072;2023-03-23T11:36:50;16.77;60.76
73780;SHT30;62093;37.614;15.072;2023-03-23T11:41:54;16.77;60.82
73780;SHT30;62093;37.614;15.072;2023-03-23T11:44:22;16.77;60.83
73780;SHT30;62093;37.614;15.072;2023-03-23T11:47:00;16.77;60.83
73780;SHT30;62093;37.614;15.072;2023-03-23T11:49:49;16.79;60.83
73780;SHT30;62093;37.614;15.072;2023-03-23T11:58:19;16.77;60.78
73780;SHT30;62093;37.614;15.072;2023-03-23T12:00:51;16.76;60.76
73780;SHT30;62093;37.614;15.072;2023-03-23T12:06:08;16.80;60.67
73780;SHT30;62093;37.614;15.072;2023-03-23T12:22:37;16.81;60.63
73780;SHT30;62093;37.614;15.072;2023-03-23T12:28:50;16.83;60.45
73780;SHT30;62093;37.614;15.072;2023-03-23T12:37:13;16.84;60.49
73780;SHT30;62093;37.614;15.072;2023-03-23T12:45:49;16.85;60.55
73780;SHT30;62093;37.614;15.072;2023-03-23T12:48:24;16.87;60.49
73780;SHT30;62093;37.614;15.072;2023-03-23T12:54:19;16.91;60.50
73780;SHT30;62093;37.614;15.072;2023-03-23T12:56:58;16.88;60.47
73780;SHT30;62093;37.614;15.072;2023-03-23T12:59:39;16.91;60.50
73780;SHT30;62093;37.614;15.072;2023-03-23T13:05:24;16.95;60.43
73780;SHT30;62093;37.614;15.072;2023-03-23T13:08:14;16.91;60.47
73780;SHT30;62093;37.614;15.072;2023-03-23T13:10:51;16.93;60.43
73780;SHT30;62093;37.614;15.072;2023-03-23T13:13:39;16.93;60.47
73780;SHT30;62093;37.614;15.072;2023-03-23T13:16:15;16.95;60.33
73780;SHT30;62093;37.614;15.072;2023-03-23T13:24:14;16.91;60.44
73780;SHT30;62093;37.614;15.072;2023-03-23T13:26:42;16.93;60.37
73780;SHT30;62093;37.614;15.072;2023-03-23T13:29:20;16.93;60.32
73780;SHT30;62093;37.614;15.072;2023-03-23T13:31:48;16.93;60.23
73780;SHT30;62093;37.614;15.072;2023-03-23T13:34:23;16.94;60.25
73780;SHT30;62093;37.614;15.072;2023-03-23T13:36:56;16.94;60.21
73780;SHT30;62093;37.614;15.072;2023-03-23T13:39:31;16.93;60.23
73780;SHT30;62093;37.614;15.072;2023-03-23T13:47:26;16.95;60.33
73780;SHT30;62093;37.614;15.072;2023-03-23T13:50:43;16.94;60.23
73780;SHT30;62093;37.614;15.072;2023-03-23T13:53:00;16.97;60.29
73780;SHT30;62093;37.614;15.072;2023-03-23T13:55:39;16.95;60.24
73780;SHT30;62093;37.614;15.072;2023-03-23T14:03:01;16.97;60.07
73780;SHT30;62093;37.614;15.072;2023-03-23T14:05:34;16.97;60.25
73780;SHT30;62093;37.614;15.072;2023-03-23T14:10:39;16.97;59.94
73780;SHT30;62093;37.614;15.072;2023-03-23T14:13:15;16.97;60.16
73780;SHT30;62093;37.614;15.072;2023-03-23T14:16:03;16.99;60.06
73780;SHT30;62093;37.614;15.072;2023-03-23T14:18:35;16.97;60.12
73780;SHT30;62093;37.614;15.072;2023-03-23T14:21:03;16.99;60.16
73780;SHT30;62093;37.614;15.072;2023-03-23T14:23:32;16.97;60.21
73780;SHT30;62093;37.614;15.072;2023-03-23T14:26:10;16.99;60.14
73780;SHT30;62093;37.614;15.072;2023-03-23T14:28:40;16.97;60.19
73780;SHT30;62093;37.614;15.072;2023-03-23T14:31:24;16.99;60.14
73780;SHT30;62093;37.614;15.072;2023-03-23T14:33:51;16.99;60.21
73780;SHT30;62093;37.614;15.072;2023-03-23T14:36:27;16.99;60.19
73780;SHT30;62093;37.614;15.072;2023-03-23T14:39:21;17.00;60.13
73780;SHT30;62093;37.614;15.072;2023-03-23T14:41:48;17.00;60.08
73780;SHT30;62093;37.614;15.072;2023-03-23T14:44:24;17.00;60.18
73780;SHT30;62093;37.614;15.072;2023-03-23T14:46:50;17.01;60.07
73780;SHT30;62093;37.614;15.072;2023-03-23T14:49:20;17.03;60.16
73780;SHT30;62093;37.614;15.072;2023-03-23T14:51:52;17.00;60.15
73780;SHT30;62093;37.614;15.072;2023-03-23T14:54:26;17.03;60.08
73780;SHT30;62093;37.614;15.072;2023-03-23T14:56:53;17.00;60.17
73780;SHT30;62093;37.614;15.072;2023-03-23T14:59:20;17.01;60.18
73780;SHT30;62093;37.614;15.072;2023-03-23T15:01:48;17.04;60.07
73780;SHT30;62093;37.614;15.072;2023-03-23T15:04:25;17.01;60.05
73780;SHT30;62093;37.614;15.072;2023-03-23T15:06:56;17.03;60.03
73780;SHT30;62093;37.614;15.072;2023-03-23T15:09:24;17.03;60.01
73780;SHT30;62093;37.614;15.072;2023-03-23T15:11:56;17.04;59.79
73780;SHT30;62093;37.614;15.072;2023-03-23T15:14:28;17.03;59.89
73780;SHT30;62093;37.614;15.072;2023-03-23T15:16:55;17.03;59.84
73780;SHT30;62093;37.614;15.072;2023-03-23T15:19:27;17.01;59.93
73780;SHT30;62093;37.614;15.072;2023-03-23T15:22:12;17.04;59.43
73780;SHT30;62093;37.614;15.072;2023-03-23T15:24:40;17.04;59.67
73780;SHT30;62093;37.614;15.072;2023-03-23T15:27:16;17.00;59.93
73780;SHT30;62093;37.614;15.072;2023-03-23T15:29:57;17.03;59.73
73780;SHT30;62093;37.614;15.072;2023-03-23T15:32:29;17.00;59.66
73780;SHT30;62093;37.614;15.072;2023-03-23T15:34:56;17.01;59.55
73780;SHT30;62093;37.614;15.072;2023-03-23T15:37:28;17.00;59.70
73780;SHT30;62093;37.614;15.072;2023-03-23T15:39:55;17.01;59.62
73780;SHT30;62093;37.614;15.072;2023-03-23T15:42:24;17.00;59.70
73780;SHT30;62093;37.614;15.072;2023-03-23T15:52:45;17.01;59.63
73780;SHT30;62093;37.614;15.072;2023-03-23T15:55:37;17.00;59.75
73780;SHT30;62093;37.614;15.072;2023-03-23T15:58:13;17.00;59.63
73780;SHT30;62093;37.614;15.072;2023-03-23T16:00:40;17.00;59.71
73780;SHT30;62093;37.614;15.072;2023-03-23T16:03:10;16.99;59.77
73780;SHT30;62093;37.614;15.072;2023-03-23T16:05:37;16.99;59.84
73780;SHT30;62093;37.614;15.072;2023-03-23T16:08:03;17.00;59.78
73780;SHT30;62093;37.614;15.072;2023-03-23T16:10:29;16.99;59.86
73780;SHT30;62093;37.614;15.072;2023-03-23T16:12:55;17.00;59.93
73780;SHT30;62093;37.614;15.072;2023-03-23T16:15:21;16.99;59.85
73780;SHT30;62093;37.614;15.072;2023-03-23T16:17:47;16.99;59.86
73780;SHT30;62093;37.614;15.072;2023-03-23T16:20:21;17.00;59.83
73780;SHT30;62093;37.614;15.072;2023-03-23T16:22:48;16.99;59.83
73780;SHT30;62093;37.614;15.072;2023-03-23T16:25:15;16.99;59.96
73780;SHT30;62093;37.614;15.072;2023-03-23T16:27:41;16.95;59.80
73780;SHT30;62093;37.614;15.072;2023-03-23T16:30:15;16.95;59.92
73780;SHT30;62093;37.614;15.072;2023-03-23T16:32:42;16.95;60.03
73780;SHT30;62093;37.614;15.072;2023-03-23T16:35:08;16.95;60.01
73780;SHT30;62093;37.614;15.072;2023-03-23T16:37:35;16.97;60.12
73780;SHT30;62093;37.614;15.072;2023-03-23T16:40:02;16.94;60.17
73780;SHT30;62093;37.614;15.072;2023-03-23T16:42:28;16.95;60.31
73780;SHT30;62093;37.614;15.072;2023-03-23T16:44:54;16.97;60.29
73780;SHT30;62093;37.614;15.072;2023-03-23T16:47:20;16.95;60.45
73780;SHT30;62093;37.614;15.072;2023-03-23T16:49:51;16.95;60.42
73780;SHT30;62093;37.614;15.072;2023-03-23T16:52:17;16.94;60.44
73780;SHT30;62093;37.614;15.072;2023-03-23T16:54:43;16.97;60.46
73780;SHT30;62093;37.614;15.072;2023-03-23T16:57:09;16.94;60.58
73780;SHT30;62093;37.614;15.072;2023-03-23T16:59:35;16.94;60.63
73780;SHT30;62093;37.614;15.072;2023-03-23T17:02:01;16.95;60.64
73780;SHT30;62093;37.614;15.072;2023-03-23T17:04:32;16.93;60.67
73780;SHT30;62093;37.614;15.072;2023-03-23T17:06:58;16.95;60.69
73780;SHT30;62093;37.614;15.072;2023-03-23T17:09:25;16.94;60.64
73780;SHT30;62093;37.614;15.072;2023-03-23T17:11:52;16.93;60.74
73780;SHT30;62093;37.614;15.072;2023-03-23T17:14:18;16.91;60.75
73780;SHT30;62093;37.614;15.072;2023-03-23T17:16:45;16.90;60.84
73780;SHT30;62093;37.614;15.072;2023-03-23T17:19:11;16.90;60.87
73780;SHT30;62093;37.614;15.072;2023-03-23T17:21:39;16.90;60.90
73780;SHT30;62093;37.614;15.072;2023-03-23T17:24:06;16.88;60.83
73780;SHT30;62093;37.614;15.072;2023-03-23T17:26:32;16.87;60.89
73780;SHT30;62093;37.614;15.072;2023-03-23T17:28:58;16.87;60.86
73780;SHT30;62093;37.614;15.072;2023-03-23T17:31:24;16.83;60.87
73780;SHT30;62093;37.614;15.072;2023-03-23T17:33:50;16.87;60.72
73780;SHT30;62093;37.614;15.072;2023-03-23T17:36:17;16.81;60.80
73780;SHT30;62093;37.614;15.072;2023-03-23T17:38:43;16.83;60.83
73780;SHT30;62093;37.614;15.072;2023-03-23T17:41:09;16.83;60.85